createdAt,value
2018-01-25T00:01:38.229Z,98248.53
2018-01-25T00:04:05.739Z,98249.09
2018-01-25T00:06:33.257Z,98256.08
2018-01-25T00:09:00.774Z,98255.00
2018-01-25T00:11:28.297Z,98251.11
2018-01-25T00:13:55.811Z,98253.75
2018-01-25T00:16:23.318Z,98246.58
2018-01-25T00:18:50.819Z,98244.92
2018-01-25T00:21:18.354Z,98248.22
2018-01-25T00:23:45.859Z,98254.32
2018-01-25T00:26:13.365Z,98245.34
2018-01-25T00:28:40.868Z,98246.45
2018-01-25T00:31:08.393Z,98246.27
2018-01-25T00:33:35.928Z,98245.45
2018-01-25T00:36:03.436Z,98245.39
2018-01-25T00:38:31.053Z,98248.84
2018-01-25T00:40:58.568Z,98244.88
2018-01-25T00:43:26.073Z,98242.41
2018-01-25T00:45:54.119Z,98235.40
2018-01-25T00:48:21.624Z,98233.59
2018-01-25T00:50:49.139Z,98235.24
2018-01-25T00:53:16.643Z,98237.94
2018-01-25T00:55:44.153Z,98232.20
2018-01-25T00:58:11.657Z,98233.86
2018-01-25T01:00:39.162Z,98232.90
2018-01-25T01:03:06.653Z,98234.50
2018-01-25T01:05:34.163Z,98227.59
2018-01-25T01:08:01.803Z,98235.48
2018-01-25T01:10:29.312Z,98232.09
2018-01-25T01:12:56.819Z,98230.80
2018-01-25T01:15:24.348Z,98224.80
2018-01-25T01:17:51.863Z,98231.72
2018-01-25T01:20:19.367Z,98235.62
2018-01-25T01:22:46.881Z,98236.72
2018-01-25T01:25:14.402Z,98234.44
2018-01-25T01:27:41.902Z,98236.39
2018-01-25T01:30:09.408Z,98241.13
2018-01-25T01:32:36.911Z,98240.33
2018-01-25T01:35:04.437Z,98241.57
2018-01-25T01:37:31.967Z,98246.06
2018-01-25T01:39:59.469Z,98237.69
2018-01-25T01:42:27.032Z,98239.59
2018-01-25T01:44:54.548Z,98234.40
2018-01-25T01:47:22.073Z,98237.85
2018-01-25T01:49:49.584Z,98239.03
2018-01-25T01:52:17.088Z,98238.26
2018-01-25T01:54:44.607Z,98236.67
2018-01-25T01:57:12.126Z,98232.37
2018-01-25T01:59:39.619Z,98231.86
2018-01-25T02:02:07.133Z,98227.44
2018-01-25T02:04:34.644Z,98224.02
2018-01-25T02:07:02.162Z,98218.36
2018-01-25T02:09:29.671Z,98223.80
2018-01-25T02:11:57.182Z,98216.63
2018-01-25T02:14:24.704Z,98210.00
2018-01-25T02:16:53.264Z,98214.05
2018-01-25T02:19:20.776Z,98212.75
2018-01-25T02:21:48.291Z,98217.59
2018-01-25T02:24:15.808Z,98219.70
2018-01-25T02:26:43.322Z,98216.94
2018-01-25T02:29:10.847Z,98217.84
2018-01-25T02:31:38.377Z,98215.06
2018-01-25T02:34:05.881Z,98217.12
2018-01-25T02:36:33.428Z,98215.89
2018-01-25T02:39:00.949Z,98218.63
2018-01-25T02:41:28.487Z,98214.47
2018-01-25T02:43:56.007Z,98207.71
2018-01-25T02:46:23.504Z,98208.41
2018-01-25T02:48:51.018Z,98216.98
2018-01-25T02:51:18.544Z,98213.02
2018-01-25T02:53:46.063Z,98204.27
2018-01-25T02:56:13.567Z,98205.95
2018-01-25T02:58:41.083Z,98205.49
2018-01-25T03:01:08.624Z,98205.75
2018-01-25T03:03:36.139Z,98207.01
2018-01-25T03:06:03.637Z,98211.58
2018-01-25T03:08:31.139Z,98217.95
2018-01-25T03:10:58.657Z,98215.85
2018-01-25T03:13:26.167Z,98215.95
2018-01-25T03:15:54.237Z,98217.27
2018-01-25T03:18:21.754Z,98213.80
2018-01-25T03:20:49.253Z,98218.56
2018-01-25T03:23:16.768Z,98211.48
2018-01-25T03:25:44.289Z,98213.02
2018-01-25T03:28:11.809Z,98214.47
2018-01-25T03:30:39.340Z,98212.05
2018-01-25T03:33:06.859Z,98204.45
2018-01-25T03:35:34.363Z,98211.54
2018-01-25T03:38:01.858Z,98220.41
2018-01-25T03:40:29.363Z,98222.31
2018-01-25T03:42:56.878Z,98225.55
2018-01-25T03:45:25.944Z,98225.91
2018-01-25T03:47:53.463Z,98222.83
2018-01-25T03:50:20.999Z,98219.64
2018-01-25T03:52:48.509Z,98220.34
2018-01-25T03:55:16.002Z,98219.00
2018-01-25T03:57:43.493Z,98220.68
2018-01-25T04:00:11.004Z,98217.79
2018-01-25T04:02:38.578Z,98219.80
2018-01-25T04:05:06.094Z,98210.43
2018-01-25T04:07:33.604Z,98204.36
2018-01-25T04:10:01.118Z,98200.67
2018-01-25T04:12:28.628Z,98207.11
2018-01-25T04:14:56.140Z,98203.45
2018-01-25T04:17:23.651Z,98205.52
2018-01-25T04:19:51.171Z,98196.80
2018-01-25T04:22:18.679Z,98198.41
2018-01-25T04:24:46.193Z,98191.31
2018-01-25T04:27:13.702Z,98185.31
2018-01-25T04:29:41.185Z,98180.07
2018-01-25T04:32:08.703Z,98192.52
2018-01-25T04:34:36.221Z,98195.16
2018-01-25T04:37:03.883Z,98202.66
2018-01-25T04:39:31.389Z,98201.22
2018-01-25T04:41:58.900Z,98206.07
2018-01-25T04:44:26.428Z,98199.47
2018-01-25T04:46:53.949Z,98191.91
2018-01-25T04:49:21.455Z,98184.39
2018-01-25T04:51:48.964Z,98189.78
2018-01-25T04:54:16.492Z,98192.08
2018-01-25T04:56:43.996Z,98181.73
2018-01-25T04:59:11.518Z,98191.30
2018-01-25T05:01:39.052Z,98186.73
2018-01-25T05:04:06.559Z,98185.26
2018-01-25T05:06:34.089Z,98190.52
2018-01-25T05:09:01.609Z,98197.73
2018-01-25T05:11:29.128Z,98186.31
2018-01-25T05:13:56.644Z,98178.38
2018-01-25T05:16:24.157Z,98179.87
2018-01-25T05:18:51.672Z,98173.57
2018-01-25T05:21:19.182Z,98168.95
2018-01-25T05:23:46.714Z,98164.58
2018-01-25T05:26:14.238Z,98160.28
2018-01-25T05:28:41.764Z,98161.50
2018-01-25T05:31:09.285Z,98151.13
2018-01-25T05:33:36.800Z,98152.67
2018-01-25T05:36:04.319Z,98152.41
2018-01-25T05:38:31.832Z,98163.46
2018-01-25T05:40:59.348Z,98163.92
2018-01-25T05:43:26.868Z,98159.03
2018-01-25T05:45:55.114Z,98166.48
2018-01-25T05:48:22.618Z,98173.73
2018-01-25T05:50:50.140Z,98167.37
2018-01-25T05:53:17.653Z,98172.34
2018-01-25T05:55:45.162Z,98173.13
2018-01-25T05:58:12.677Z,98162.13
2018-01-25T06:00:40.184Z,98172.14
2018-01-25T06:03:07.702Z,98163.61
2018-01-25T06:05:35.214Z,98165.80
2018-01-25T06:08:02.740Z,98166.20
2018-01-25T06:10:30.249Z,98161.49
2018-01-25T06:12:57.789Z,98161.16
2018-01-25T06:15:25.305Z,98157.00
2018-01-25T06:17:52.872Z,98154.70
2018-01-25T06:20:20.384Z,98148.81
2018-01-25T06:22:47.900Z,98143.34
2018-01-25T06:25:15.438Z,98148.52
2018-01-25T06:27:42.961Z,98152.43
2018-01-25T06:30:10.476Z,98157.50
2018-01-25T06:32:38.003Z,98151.64
2018-01-25T06:35:05.517Z,98150.20
2018-01-25T06:37:33.045Z,98147.56
2018-01-25T06:40:00.563Z,98145.78
2018-01-25T06:42:28.087Z,98140.10
2018-01-25T06:44:55.612Z,98148.94
2018-01-25T06:47:23.133Z,98146.23
2018-01-25T06:49:50.657Z,98150.53
2018-01-25T06:52:18.189Z,98151.49
2018-01-25T06:54:45.718Z,98141.03
2018-01-25T06:57:13.253Z,98148.90
2018-01-25T06:59:40.802Z,98152.12
2018-01-25T07:02:08.308Z,98151.87
2018-01-25T07:04:35.844Z,98146.52
2018-01-25T07:07:03.380Z,98155.58
2018-01-25T07:09:31.182Z,98146.08
2018-01-25T07:11:58.707Z,98152.64
2018-01-25T07:14:26.232Z,98158.61
2018-01-25T07:16:53.773Z,98159.20
2018-01-25T07:19:21.303Z,98156.95
2018-01-25T07:21:48.819Z,98154.80
2018-01-25T07:24:16.449Z,98154.87
2018-01-25T07:26:43.954Z,98158.61
2018-01-25T07:29:11.463Z,98152.15
2018-01-25T07:31:39.126Z,98156.09
2018-01-25T07:34:06.665Z,98154.19
2018-01-25T07:36:34.190Z,98165.95
2018-01-25T07:39:01.789Z,98154.03
2018-01-25T07:41:29.563Z,98150.84
2018-01-25T07:43:57.080Z,98153.08
2018-01-25T07:46:24.599Z,98147.72
2018-01-25T07:48:52.149Z,98142.39
2018-01-25T07:51:19.649Z,98139.16
2018-01-25T07:53:47.152Z,98142.09
2018-01-25T07:56:14.846Z,98140.97
2018-01-25T07:58:42.375Z,98140.45
2018-01-25T08:01:09.877Z,98143.17
2018-01-25T08:03:37.386Z,98130.80
2018-01-25T08:06:04.924Z,98133.09
2018-01-25T08:08:32.439Z,98122.82
2018-01-25T08:10:59.944Z,98121.91
2018-01-25T08:13:33.148Z,98129.02
2018-01-25T08:16:06.349Z,98129.58
2018-01-25T08:18:33.874Z,98135.47
2018-01-25T08:21:01.389Z,98138.38
2018-01-25T08:23:28.906Z,98135.78
2018-01-25T08:25:56.414Z,98144.06
2018-01-25T08:28:23.963Z,98133.12
2018-01-25T08:30:51.494Z,98140.33
2018-01-25T08:33:19.034Z,98139.28
2018-01-25T08:35:46.570Z,98137.46
2018-01-25T08:38:14.104Z,98136.95
2018-01-25T08:40:41.653Z,98138.97
2018-01-25T08:43:09.169Z,98141.72
2018-01-25T08:45:36.673Z,98137.08
2018-01-25T08:48:04.324Z,98138.38
2018-01-25T08:50:31.850Z,98137.38
2018-01-25T08:52:59.414Z,98137.97
2018-01-25T08:55:26.924Z,98131.58
2018-01-25T08:57:54.440Z,98138.94
2018-01-25T09:00:21.945Z,98138.68
2018-01-25T09:02:49.465Z,98141.40
2018-01-25T09:05:17.005Z,98138.36
2018-01-25T09:07:44.540Z,98133.69
2018-01-25T09:10:12.160Z,98134.02
2018-01-25T09:12:39.685Z,98135.34
2018-01-25T09:15:07.209Z,98131.20
2018-01-25T09:17:34.728Z,98137.56
2018-01-25T09:20:02.273Z,98141.45
2018-01-25T09:22:29.779Z,98139.09
2018-01-25T09:24:57.299Z,98130.55
2018-01-25T09:27:24.824Z,98133.83
2018-01-25T09:29:52.350Z,98130.82
2018-01-25T09:32:19.884Z,98122.80
2018-01-25T09:34:47.424Z,98131.80
2018-01-25T09:37:14.948Z,98126.62
2018-01-25T09:39:42.471Z,98129.30
2018-01-25T09:42:10.133Z,98126.10
2018-01-25T09:44:37.720Z,98131.72
2018-01-25T09:47:05.240Z,98125.07
2018-01-25T09:49:32.848Z,98135.83
2018-01-25T09:52:00.380Z,98126.33
2018-01-25T09:54:27.914Z,98126.70
2018-01-25T09:56:55.410Z,98127.58
2018-01-25T09:59:22.919Z,98127.92
2018-01-25T10:01:50.450Z,98126.42
2018-01-25T10:04:18.148Z,98122.85
2018-01-25T10:06:45.683Z,98123.96
2018-01-25T10:09:13.213Z,98123.93
2018-01-25T10:11:40.755Z,98134.86
2018-01-25T10:14:08.288Z,98118.78
2018-01-25T10:16:35.838Z,98121.36
2018-01-25T10:19:03.394Z,98120.25
2018-01-25T10:21:30.940Z,98117.61
2018-01-25T10:23:58.579Z,98116.84
2018-01-25T10:26:26.099Z,98116.49
2018-01-25T10:28:53.643Z,98112.94
2018-01-25T10:31:21.173Z,98112.89
2018-01-25T10:33:48.861Z,98103.89
2018-01-25T10:36:16.408Z,98105.08
2018-01-25T10:38:44.112Z,98103.20
2018-01-25T10:41:11.623Z,98095.42
2018-01-25T10:43:39.151Z,98094.59
2018-01-25T10:46:06.698Z,98085.28
2018-01-25T10:48:34.301Z,98089.47
2018-01-25T10:51:01.839Z,98082.69
2018-01-25T10:53:29.362Z,98078.85
2018-01-25T10:55:56.923Z,98071.20
2018-01-25T10:58:24.560Z,98064.77
2018-01-25T11:00:57.908Z,98060.89
2018-01-25T11:03:25.424Z,98048.34
2018-01-25T11:05:52.950Z,98043.03
2018-01-25T11:08:20.468Z,98047.02
2018-01-25T11:10:49.058Z,98046.02
2018-01-25T11:13:16.613Z,98045.88
2018-01-25T11:15:44.146Z,98035.88
2018-01-25T11:18:11.679Z,98040.32
2018-01-25T11:20:39.199Z,98034.95
2018-01-25T11:23:06.719Z,98040.06
2018-01-25T11:25:34.235Z,98029.41
2018-01-25T11:28:03.228Z,98031.93
2018-01-25T11:30:30.740Z,98027.13
2018-01-25T11:32:58.250Z,98028.70
2018-01-25T11:35:25.769Z,98025.59
2018-01-25T11:37:53.264Z,98025.02
2018-01-25T11:40:20.793Z,98021.42
2018-01-25T11:42:48.318Z,98022.13
2018-01-25T11:45:15.820Z,98026.36
2018-01-25T11:47:43.340Z,98010.94
2018-01-25T11:50:10.855Z,98008.70
2018-01-25T11:52:38.367Z,98007.47
2018-01-25T11:55:05.885Z,97997.37
2018-01-25T11:57:33.408Z,97998.56
2018-01-25T12:00:00.928Z,97998.47
2018-01-25T12:02:29.179Z,97997.41
2018-01-25T12:04:56.698Z,98002.01
2018-01-25T12:07:24.193Z,97993.71
2018-01-25T12:09:51.709Z,97994.23
2018-01-25T12:12:19.328Z,97980.77
2018-01-25T12:14:46.840Z,97973.44
2018-01-25T12:17:14.799Z,97984.38
2018-01-25T12:19:42.340Z,97978.50
2018-01-25T12:22:09.874Z,97968.38
2018-01-25T12:24:37.374Z,97969.88
2018-01-25T12:27:05.188Z,97972.59
2018-01-25T12:29:32.717Z,97963.66
2018-01-25T12:32:00.363Z,97959.05
2018-01-25T12:34:27.889Z,97955.39
2018-01-25T12:36:55.418Z,97953.36
2018-01-25T12:39:22.941Z,97946.42
2018-01-25T12:41:50.474Z,97943.13
2018-01-25T12:44:18.006Z,97936.77
2018-01-25T12:46:45.574Z,97931.88
2018-01-25T12:49:13.083Z,97931.50
2018-01-25T12:51:40.606Z,97928.11
2018-01-25T12:54:08.120Z,97928.27
2018-01-25T12:56:35.640Z,97925.14
2018-01-25T12:59:03.163Z,97925.04
2018-01-25T13:01:30.699Z,97924.81
2018-01-25T13:03:58.267Z,97923.03
2018-01-25T13:06:25.793Z,97919.09
2018-01-25T13:08:53.343Z,97914.61
2018-01-25T13:11:20.879Z,97913.00
2018-01-25T13:13:48.415Z,97898.30
2018-01-25T13:16:15.983Z,97903.55
2018-01-25T13:18:43.513Z,97897.48
2018-01-25T13:21:11.045Z,97904.41
2018-01-25T13:23:38.555Z,97901.38
2018-01-25T13:26:06.079Z,97905.91
2018-01-25T13:28:33.607Z,97895.27
2018-01-25T13:31:01.143Z,97890.30
2018-01-25T13:33:34.285Z,97893.44
2018-01-25T13:36:01.808Z,97888.73
2018-01-25T13:38:29.328Z,97872.27
2018-01-25T13:40:56.861Z,97870.52
2018-01-25T13:43:24.416Z,97866.10
2018-01-25T13:45:51.945Z,97863.02
2018-01-25T13:48:19.474Z,97859.38
2018-01-25T13:50:47.032Z,97867.42
2018-01-25T13:53:14.565Z,97869.47
2018-01-25T13:55:42.083Z,97867.98
2018-01-25T13:58:09.603Z,97860.92
2018-01-25T14:00:37.156Z,97860.44
2018-01-25T14:03:04.674Z,97857.65
2018-01-25T14:05:32.228Z,97850.55
2018-01-25T14:07:59.803Z,97849.91
2018-01-25T14:10:27.334Z,97852.94
2018-01-25T14:12:54.863Z,97843.73
2018-01-25T14:15:22.378Z,97843.14
2018-01-25T14:17:49.985Z,97837.52
2018-01-25T14:20:17.546Z,97839.67
2018-01-25T14:22:45.074Z,97837.37
2018-01-25T14:25:12.605Z,97840.23
2018-01-25T14:27:40.114Z,97833.52
2018-01-25T14:30:07.628Z,97827.27
2018-01-25T14:32:35.167Z,97829.28
2018-01-25T14:35:02.960Z,97819.14
2018-01-25T14:37:30.495Z,97821.50
2018-01-25T14:39:58.013Z,97824.41
2018-01-25T14:42:25.531Z,97825.62
2018-01-25T14:44:53.060Z,97828.16
2018-01-25T14:47:20.601Z,97829.44
2018-01-25T14:49:48.128Z,97824.41
2018-01-25T14:52:15.660Z,97827.93
2018-01-25T14:54:43.179Z,97826.09
2018-01-25T14:57:10.715Z,97823.36
2018-01-25T14:59:38.228Z,97827.27
2018-01-25T15:02:05.755Z,97821.64
2018-01-25T15:04:33.397Z,97827.55
2018-01-25T15:07:01.178Z,97815.45
2018-01-25T15:09:28.695Z,97818.45
2018-01-25T15:11:56.211Z,97811.88
2018-01-25T15:14:23.735Z,97816.41
2018-01-25T15:16:51.285Z,97812.05
2018-01-25T15:19:18.826Z,97814.98
2018-01-25T15:21:46.356Z,97820.72
2018-01-25T15:24:13.876Z,97811.86
2018-01-25T15:26:47.145Z,97819.59
2018-01-25T15:29:14.670Z,97824.78
2018-01-25T15:31:42.180Z,97821.72
2018-01-25T15:34:09.699Z,97817.90
2018-01-25T15:36:37.245Z,97832.59
2018-01-25T15:39:04.771Z,97836.78
2018-01-25T15:41:32.289Z,97829.83
2018-01-25T15:43:59.810Z,97833.55
2018-01-25T15:46:27.331Z,97835.73
2018-01-25T15:48:54.903Z,97829.20
2018-01-25T15:51:22.401Z,97831.39
2018-01-25T15:53:49.956Z,97838.75
2018-01-25T15:56:17.779Z,97842.42
2018-01-25T15:58:45.301Z,97839.89
2018-01-25T16:01:12.820Z,97848.53
2018-01-25T16:03:40.352Z,97838.25
2018-01-25T16:06:07.850Z,97848.36
2018-01-25T16:08:35.429Z,97848.61
2018-01-25T16:11:02.961Z,97840.38
2018-01-25T16:13:30.491Z,97849.52
2018-01-25T16:15:58.005Z,97852.08
2018-01-25T16:18:25.521Z,97850.83
2018-01-25T16:20:53.245Z,97847.56
2018-01-25T16:23:20.843Z,97845.58
2018-01-25T16:25:48.452Z,97844.45
2018-01-25T16:28:21.872Z,97835.48
2018-01-25T16:30:49.454Z,97841.45
2018-01-25T16:33:17.015Z,97834.20
2018-01-25T16:35:44.531Z,97833.38
2018-01-25T16:38:12.057Z,97841.57
2018-01-25T16:40:39.580Z,97835.63
2018-01-25T16:43:07.104Z,97834.90
2018-01-25T16:45:34.689Z,97839.85
2018-01-25T16:48:02.210Z,97830.84
2018-01-25T16:50:29.740Z,97827.70
2018-01-25T16:52:57.265Z,97830.16
2018-01-25T16:55:24.783Z,97832.83
2018-01-25T16:57:52.546Z,97835.34
2018-01-25T17:00:20.070Z,97836.63
2018-01-25T17:02:47.616Z,97842.66
2018-01-25T17:05:15.374Z,97844.00
2018-01-25T17:07:42.876Z,97844.53
2018-01-25T17:10:10.412Z,97848.82
2018-01-25T17:12:37.949Z,97846.83
2018-01-25T17:15:05.475Z,97847.39
2018-01-25T17:17:33.021Z,97848.25
2018-01-25T17:20:00.586Z,97845.19
2018-01-25T17:22:28.234Z,97849.42
2018-01-25T17:24:55.791Z,97849.41
2018-01-25T17:27:23.316Z,97854.41
2018-01-25T17:29:50.835Z,97851.39
2018-01-25T17:32:18.354Z,97850.56
2018-01-25T17:34:45.901Z,97850.55
2018-01-25T17:37:13.465Z,97853.02
2018-01-25T17:39:40.986Z,97850.14
2018-01-25T17:42:08.529Z,97857.39
2018-01-25T17:44:36.071Z,97853.94
2018-01-25T17:47:03.640Z,97853.67
2018-01-25T17:49:31.235Z,97852.83
2018-01-25T17:51:58.776Z,97860.66
2018-01-25T17:54:26.344Z,97856.76
2018-01-25T17:56:53.996Z,97860.44
2018-01-25T17:59:21.547Z,97860.02
2018-01-25T18:01:49.081Z,97858.38
2018-01-25T18:04:16.620Z,97860.68
2018-01-25T18:06:44.352Z,97865.09
2018-01-25T18:09:12.011Z,97871.55
2018-01-25T18:11:39.535Z,97872.60
2018-01-25T18:14:07.065Z,97875.84
2018-01-25T18:16:34.586Z,97884.78
2018-01-25T18:19:02.126Z,97872.13
2018-01-25T18:21:29.666Z,97877.37
2018-01-25T18:23:57.269Z,97874.69
2018-01-25T18:26:24.796Z,97871.44
2018-01-25T18:28:52.333Z,97866.60
2018-01-25T18:31:19.874Z,97869.73
2018-01-25T18:33:47.426Z,97866.80
2018-01-25T18:36:14.980Z,97872.78
2018-01-25T18:38:42.516Z,97876.47
2018-01-25T18:41:10.096Z,97871.80
2018-01-25T18:43:37.706Z,97876.73
2018-01-25T18:46:05.305Z,97874.48
2018-01-25T18:48:32.839Z,97878.73
2018-01-25T18:51:00.476Z,97882.23
2018-01-25T18:53:28.055Z,97876.72
2018-01-25T18:55:55.590Z,97879.23
2018-01-25T18:58:23.123Z,97871.84
2018-01-25T19:00:50.669Z,97876.55
2018-01-25T19:03:18.204Z,97868.11
2018-01-25T19:05:45.745Z,97876.21
2018-01-25T19:08:13.284Z,97875.09
2018-01-25T19:10:40.840Z,97876.59
2018-01-25T19:13:08.382Z,97872.13
2018-01-25T19:15:36.090Z,97876.27
2018-01-25T19:18:03.646Z,97878.30
2018-01-25T19:20:31.205Z,97875.14
2018-01-25T19:22:58.767Z,97874.59
2018-01-25T19:25:26.311Z,97883.98
2018-01-25T19:27:53.885Z,97885.98
2018-01-25T19:30:21.898Z,97878.30
2018-01-25T19:32:49.468Z,97878.59
2018-01-25T19:35:17.030Z,97876.06
2018-01-25T19:37:44.570Z,97878.05
2018-01-25T19:40:12.115Z,97870.78
2018-01-25T19:42:40.196Z,97868.63
2018-01-25T19:45:07.782Z,97864.60
2018-01-25T19:47:35.387Z,97856.72
2018-01-25T19:50:02.953Z,97855.38
2018-01-25T19:52:30.526Z,97853.55
2018-01-25T19:54:58.115Z,97857.69
2018-01-25T19:57:25.649Z,97866.55
2018-01-25T19:59:53.314Z,97864.77
2018-01-25T20:02:21.081Z,97856.60
2018-01-25T20:04:48.695Z,97847.05
2018-01-25T20:07:16.392Z,97846.03
2018-01-25T20:09:43.965Z,97839.73
2018-01-25T20:12:11.527Z,97837.42
2018-01-25T20:14:39.175Z,97828.16
2018-01-25T20:17:06.722Z,97807.52
2018-01-25T20:19:34.288Z,97806.01
2018-01-25T20:22:01.875Z,97832.47
2018-01-25T20:24:29.424Z,97839.58
2018-01-25T20:26:56.959Z,97829.97
2018-01-25T20:29:24.500Z,97842.87
2018-01-25T20:31:52.060Z,97848.22
2018-01-25T20:34:19.598Z,97851.02
2018-01-25T20:36:47.151Z,97851.03
2018-01-25T20:39:14.715Z,97853.06
2018-01-25T20:41:42.245Z,97845.02
2018-01-25T20:44:09.784Z,97833.75
2018-01-25T20:46:37.406Z,97838.59
2018-01-25T20:49:04.941Z,97842.74
2018-01-25T20:51:32.484Z,97846.52
2018-01-25T20:54:00.024Z,97845.66
2018-01-25T20:56:27.591Z,97836.55
2018-01-25T20:58:55.137Z,97840.17
2018-01-25T21:01:22.687Z,97838.48
2018-01-25T21:03:50.274Z,97838.36
2018-01-25T21:06:17.876Z,97835.71
2018-01-25T21:08:45.437Z,97837.46
2018-01-25T21:11:12.992Z,97838.77
2018-01-25T21:13:40.524Z,97837.42
2018-01-25T21:16:08.077Z,97839.28
2018-01-25T21:18:35.613Z,97839.17
2018-01-25T21:21:03.176Z,97839.42
2018-01-25T21:23:30.736Z,97839.98
2018-01-25T21:25:58.331Z,97842.26
2018-01-25T21:28:25.846Z,97842.95
2018-01-25T21:30:53.473Z,97838.92
2018-01-25T21:33:21.030Z,97842.66
2018-01-25T21:35:48.573Z,97839.95
2018-01-25T21:38:16.108Z,97847.30
2018-01-25T21:40:43.624Z,97844.94
2018-01-25T21:43:11.157Z,97839.58
2018-01-25T21:45:38.686Z,97841.98
2018-01-25T21:48:06.297Z,97845.06
2018-01-25T21:50:33.831Z,97849.37
2018-01-25T21:53:01.367Z,97846.00
2018-01-25T21:55:28.904Z,97843.27
2018-01-25T21:57:56.422Z,97847.94
2018-01-25T22:00:23.955Z,97850.27
2018-01-25T22:02:51.587Z,97834.29
2018-01-25T22:05:19.195Z,97850.42
2018-01-25T22:07:46.730Z,97839.70
2018-01-25T22:10:14.266Z,97838.77
2018-01-25T22:12:41.826Z,97837.98
2018-01-25T22:15:09.375Z,97845.38
2018-01-25T22:17:36.921Z,97829.70
2018-01-25T22:20:04.468Z,97826.98
2018-01-25T22:22:32.503Z,97828.36
2018-01-25T22:25:00.026Z,97831.84
2018-01-25T22:27:27.552Z,97831.59
2018-01-25T22:29:55.210Z,97833.05
2018-01-25T22:32:22.731Z,97834.13
2018-01-25T22:34:50.249Z,97829.72
2018-01-25T22:37:17.880Z,97833.19
2018-01-25T22:39:45.415Z,97832.55
2018-01-25T22:42:13.047Z,97833.86
2018-01-25T22:44:40.586Z,97837.48
2018-01-25T22:47:08.116Z,97842.88
2018-01-25T22:49:35.650Z,97838.83
2018-01-25T22:52:03.215Z,97840.72
2018-01-25T22:54:30.751Z,97849.55
2018-01-25T22:56:58.290Z,97851.17
2018-01-25T22:59:25.834Z,97849.81
2018-01-25T23:01:53.420Z,97849.28
2018-01-25T23:04:20.976Z,97844.86
2018-01-25T23:06:48.499Z,97839.63
2018-01-25T23:09:16.020Z,97847.27
2018-01-25T23:11:43.527Z,97838.95
2018-01-25T23:14:11.064Z,97838.02
2018-01-25T23:16:38.589Z,97849.40
2018-01-25T23:19:06.106Z,97847.67
2018-01-25T23:21:33.625Z,97841.92
2018-01-25T23:24:01.167Z,97839.35
2018-01-25T23:26:28.682Z,97845.25
2018-01-25T23:28:56.210Z,97849.69
2018-01-25T23:31:23.755Z,97846.61
2018-01-25T23:33:51.287Z,97838.83
2018-01-25T23:36:18.816Z,97847.01
2018-01-25T23:38:46.350Z,97845.13
2018-01-25T23:41:13.885Z,97842.29
2018-01-25T23:43:41.377Z,97842.32
2018-01-25T23:46:08.907Z,97852.23
2018-01-25T23:48:36.431Z,97858.38
2018-01-25T23:51:03.955Z,97856.23
2018-01-25T23:53:31.531Z,97857.04
2018-01-25T23:56:00.256Z,97850.98
2018-01-25T23:58:27.860Z,97847.38
